Time;durP1;ratioP1;P1;durP2;ratioP2;P2;SDS_P1;SDS_P2;PMS_P1;PMS_P2;Temp;Humidity;BMP_temperature;BMP_pressure;BME280_temperature;BME280_humidity;BME280_pressure;Samples;Min_cycle;Max_cycle;Signal;HPM_P1;HPM_P2
2021/08/21 00:02:13;;;;;;;2.60;2.40;;;20.90;35.70;;;;;;10443881;28;20229;-73
2021/08/21 00:07:17;;;;;;;3.13;2.90;;;20.90;35.70;;;;;;10443984;28;20734;-73
2021/08/21 00:12:20;;;;;;;2.93;2.73;;;20.90;36.10;;;;;;10444205;28;20231;-73
2021/08/21 00:17:24;;;;;;;2.87;2.63;;;20.80;35.90;;;;;;10446615;28;20229;-73
2021/08/21 00:22:28;;;;;;;3.67;2.80;;;20.70;35.80;;;;;;10445427;28;20237;-73
2021/08/21 00:27:31;;;;;;;2.93;2.70;;;20.70;36.20;;;;;;10444864;28;20225;-74
2021/08/21 00:32:35;;;;;;;2.70;2.50;;;20.60;35.90;;;;;;10440424;28;20229;-74
2021/08/21 00:37:39;;;;;;;3.17;2.87;;;20.60;35.90;;;;;;10443505;28;20303;-73
2021/08/21 00:42:42;;;;;;;2.73;2.53;;;20.60;36.20;;;;;;10437626;28;20319;-73
2021/08/21 00:47:46;;;;;;;3.13;2.70;;;20.50;35.90;;;;;;10444478;28;20224;-73
2021/08/21 00:52:50;;;;;;;2.77;2.57;;;20.50;36.00;;;;;;10440744;28;20302;-73
2021/08/21 00:57:54;;;;;;;3.73;2.50;;;20.40;36.20;;;;;;10442604;28;20221;-74
2021/08/21 01:02:58;;;;;;;2.83;2.63;;;20.40;36.10;;;;;;10445930;28;20603;-73
2021/08/21 01:08:02;;;;;;;3.00;2.80;;;20.40;36.10;;;;;;10441189;28;20221;-74
2021/08/21 01:13:06;;;;;;;4.67;2.53;;;20.30;36.70;;;;;;10443082;28;20225;-74
2021/08/21 01:18:09;;;;;;;3.07;2.50;;;20.30;36.20;;;;;;10443783;28;20225;-73
2021/08/21 01:23:13;;;;;;;3.00;2.70;;;20.20;36.10;;;;;;10441890;28;20233;-73
2021/08/21 01:28:18;;;;;;;3.20;2.90;;;20.20;37.00;;;;;;10443578;28;20235;-74
2021/08/21 01:33:21;;;;;;;3.07;2.77;;;20.10;36.60;;;;;;10446235;28;20289;-73
2021/08/21 01:38:24;;;;;;;3.30;2.83;;;20.10;36.60;;;;;;10437901;28;20903;-74
2021/08/21 01:43:31;;;;;;;2.90;2.70;;;20.10;36.60;;;;;;10436882;28;20248;-73
2021/08/21 01:48:34;;;;;;;2.93;2.63;;;20.00;36.50;;;;;;10441184;28;20823;-74
2021/08/21 01:53:38;;;;;;;3.63;2.80;;;20.00;36.50;;;;;;10442215;28;20229;-73
2021/08/21 01:58:42;;;;;;;2.60;2.40;;;19.90;36.40;;;;;;10448825;28;20220;-75
2021/08/21 02:03:47;;;;;;;2.87;2.67;;;19.90;36.40;;;;;;10454723;28;20255;-74
2021/08/21 02:08:50;;;;;;;2.87;2.67;;;19.80;36.30;;;;;;10449862;28;20221;-74
2021/08/21 02:13:54;;;;;;;2.57;2.33;;;19.80;36.30;;;;;;10443161;28;20225;-74
2021/08/21 02:18:58;;;;;;;3.50;2.50;;;19.70;36.20;;;;;;10449913;28;20252;-74
2021/08/21 02:24:01;;;;;;;2.70;2.50;;;19.70;36.20;;;;;;10448464;28;20237;-74
2021/08/21 02:29:07;;;;;;;3.00;2.70;;;19.60;36.20;;;;;;10446155;28;20213;-75
2021/08/21 02:34:10;;;;;;;2.57;2.30;;;19.60;36.20;;;;;;10448145;28;20241;-74
2021/08/21 02:39:14;;;;;;;2.53;2.23;;;19.50;36.10;;;;;;10447956;28;20236;-74
2021/08/21 02:44:18;;;;;;;2.40;2.20;;;19.50;36.10;;;;;;10446914;28;20229;-74
2021/08/21 02:49:21;;;;;;;2.27;2.13;;;19.40;36.30;;;;;;10447711;28;20232;-74
2021/08/21 02:54:24;;;;;;;2.40;2.20;;;19.40;36.00;;;;;;10448147;28;20230;-74
2021/08/21 02:59:29;;;;;;;2.37;2.17;;;19.30;36.20;;;;;;10448826;28;20228;-74
2021/08/21 03:04:32;;;;;;;2.17;2.07;;;19.30;36.60;;;;;;10445729;28;20233;-74
2021/08/21 03:09:35;;;;;;;2.83;2.33;;;19.30;36.40;;;;;;10451074;28;20228;-74
2021/08/21 03:14:40;;;;;;;2.63;2.43;;;19.20;36.50;;;;;;10450523;28;20229;-74
2021/08/21 03:19:43;;;;;;;2.90;2.70;;;19.20;36.80;;;;;;10446050;28;20217;-74
2021/08/21 03:24:47;;;;;;;3.00;2.27;;;19.10;36.50;;;;;;10446329;28;20228;-74
2021/08/21 03:29:51;;;;;;;2.40;2.20;;;19.00;36.30;;;;;;10447857;28;20217;-74
2021/08/21 03:34:55;;;;;;;2.10;2.00;;;18.90;36.90;;;;;;10447649;28;20232;-74
2021/08/21 03:39:58;;;;;;;3.40;2.67;;;18.80;36.70;;;;;;10441557;28;20225;-74
2021/08/21 03:45:02;;;;;;;2.83;2.53;;;18.80;36.90;;;;;;10449538;28;20261;-74
2021/08/21 03:50:06;;;;;;;2.17;2.00;;;18.70;37.10;;;;;;10444514;28;20221;-74
2021/08/21 03:55:10;;;;;;;2.37;2.17;;;18.70;37.00;;;;;;10444966;28;20221;-74
2021/08/21 04:00:16;;;;;;;2.40;2.20;;;18.60;36.90;;;;;;10445180;28;20225;-74
2021/08/21 04:05:21;;;;;;;4.90;2.30;;;18.60;37.30;;;;;;10444247;28;20235;-74
2021/08/21 04:10:24;;;;;;;2.37;2.00;;;18.60;37.10;;;;;;10451102;28;20229;-74
2021/08/21 04:15:29;;;;;;;2.30;2.13;;;18.50;37.30;;;;;;10445292;28;20239;-74
2021/08/21 04:20:32;;;;;;;3.50;2.47;;;18.60;37.70;;;;;;10445270;28;20236;-74
2021/08/21 04:25:35;;;;;;;2.60;2.40;;;18.60;37.50;;;;;;10446566;28;20819;-74
2021/08/21 04:30:40;;;;;;;2.50;2.30;;;18.50;37.50;;;;;;10452212;28;20709;-74
2021/08/21 04:35:43;;;;;;;2.47;2.13;;;18.50;37.80;;;;;;10439758;28;20225;-74
2021/08/21 04:40:47;;;;;;;2.40;2.20;;;18.50;37.70;;;;;;10445031;28;20223;-74
2021/08/21 04:45:52;;;;;;;2.33;2.13;;;18.50;37.70;;;;;;10443441;28;20225;-74
2021/08/21 04:50:55;;;;;;;3.07;2.77;;;18.50;38.00;;;;;;10444709;28;20225;-74
2021/08/21 04:55:58;;;;;;;2.40;2.30;;;18.40;37.70;;;;;;10443438;28;20220;-74
2021/08/21 05:01:03;;;;;;;3.20;2.37;;;18.40;37.80;;;;;;10448593;28;20961;-74
2021/08/21 05:06:06;;;;;;;2.33;2.13;;;18.30;38.30;;;;;;10443198;28;20751;-74
2021/08/21 05:11:09;;;;;;;3.87;2.40;;;18.30;38.80;;;;;;10446154;28;20763;-74
2021/08/21 05:16:14;;;;;;;3.00;2.67;;;18.30;38.30;;;;;;10444473;28;20224;-74
2021/08/21 05:21:27;;;;;;;3.50;3.20;;;18.30;38.80;;;;;;10441900;28;20225;-74
2021/08/21 05:26:31;;;;;;;3.10;2.80;;;18.30;38.50;;;;;;10439860;28;20236;-74
2021/08/21 05:31:35;;;;;;;2.43;2.33;;;18.40;38.60;;;;;;10440344;28;20315;-74
2021/08/21 05:36:39;;;;;;;3.13;2.70;;;18.40;39.00;;;;;;10446842;28;20693;-74
2021/08/21 05:41:42;;;;;;;4.33;2.60;;;18.40;38.80;;;;;;10445320;28;20232;-74
2021/08/21 05:46:46;;;;;;;2.57;2.37;;;18.40;38.80;;;;;;10442364;28;20224;-74
2021/08/21 05:51:50;;;;;;;2.57;2.37;;;18.50;39.60;;;;;;10443388;28;20790;-74
2021/08/21 05:56:55;;;;;;;3.27;2.97;;;18.50;39.30;;;;;;10445266;28;20615;-73
2021/08/21 06:01:59;;;;;;;3.37;3.07;;;18.50;39.40;;;;;;10441316;28;20231;-74
2021/08/21 06:07:03;;;;;;;3.07;2.80;;;18.60;40.30;;;;;;10445483;28;20259;-74
2021/08/21 06:12:07;;;;;;;3.77;3.43;;;18.60;39.90;;;;;;10442394;28;20231;-74
2021/08/21 06:17:11;;;;;;;3.67;3.40;;;18.70;40.20;;;;;;10440916;28;20240;-74
2021/08/21 06:22:15;;;;;;;3.10;2.90;;;18.70;40.80;;;;;;10439731;28;20600;-74
2021/08/21 06:27:18;;;;;;;4.00;3.70;;;18.70;40.30;;;;;;10442070;28;20217;-74
2021/08/21 06:32:23;;;;;;;4.77;4.37;;;18.80;40.60;;;;;;10440920;28;20233;-75
2021/08/21 06:37:26;;;;;;;5.20;4.80;;;18.90;41.50;;;;;;10436914;28;20721;-75
2021/08/21 06:42:29;;;;;;;5.43;5.03;;;19.00;41.50;;;;;;10440400;28;20228;-75
2021/08/21 06:47:34;;;;;;;5.97;5.47;;;19.10;41.60;;;;;;10445372;28;20225;-75
2021/08/21 06:52:38;;;;;;;6.03;5.53;;;19.20;42.50;;;;;;10439704;28;20725;-76
2021/08/21 06:57:41;;;;;;;6.30;5.80;;;19.30;42.00;;;;;;10446127;28;20221;-75
2021/08/21 07:09:07;;;;;;;6.93;5.93;;;19.60;43.40;;;;;;10430555;28;20217;-75
2021/08/21 07:14:10;;;;;;;6.73;6.23;;;19.80;43.00;;;;;;10443115;28;20229;-76
2021/08/21 07:19:14;;;;;;;7.07;6.47;;;19.90;42.60;;;;;;10446758;28;20709;-76
2021/08/21 07:24:18;;;;;;;7.37;6.77;;;20.10;42.60;;;;;;10442746;28;20229;-76
2021/08/21 07:29:21;;;;;;;7.17;6.67;;;20.20;43.20;;;;;;10445390;28;20661;-76
2021/08/21 07:34:24;;;;;;;7.77;6.87;;;20.40;43.00;;;;;;10443836;28;20800;-76
2021/08/21 07:39:29;;;;;;;7.10;6.50;;;20.60;43.00;;;;;;10445299;28;20229;-76
2021/08/21 07:44:32;;;;;;;7.57;6.97;;;20.70;43.70;;;;;;10443165;28;20229;-76
2021/08/21 07:49:35;;;;;;;8.03;7.33;;;21.00;43.80;;;;;;10444617;28;20224;-76
2021/08/21 07:54:40;;;;;;;7.43;6.77;;;21.20;43.90;;;;;;10442110;28;20595;-76
2021/08/21 07:59:43;;;;;;;6.67;6.17;;;21.40;44.10;;;;;;10439327;28;20231;-75
2021/08/21 08:04:46;;;;;;;7.80;7.10;;;21.60;44.00;;;;;;10442871;28;20247;-76
2021/08/21 08:09:51;;;;;;;7.30;6.60;;;21.90;44.20;;;;;;10443729;28;20308;-76
2021/08/21 08:14:54;;;;;;;7.70;7.00;;;22.20;44.60;;;;;;10440508;28;20693;-76
2021/08/21 08:19:57;;;;;;;7.13;6.53;;;22.50;44.00;;;;;;10443188;28;20804;-76
2021/08/21 08:25:02;;;;;;;7.10;6.47;;;22.70;43.80;;;;;;10443245;28;20240;-76
2021/08/21 08:30:06;;;;;;;6.80;6.30;;;23.10;43.50;;;;;;10442451;28;20256;-76
2021/08/21 08:35:10;;;;;;;7.40;6.77;;;23.30;43.40;;;;;;10440076;28;20243;-76
2021/08/21 08:40:15;;;;;;;6.93;6.33;;;23.60;42.80;;;;;;10442714;28;20225;-76
2021/08/21 08:45:18;;;;;;;6.63;6.10;;;23.90;42.40;;;;;;10439760;28;20240;-76
2021/08/21 08:50:21;;;;;;;6.17;5.67;;;24.20;42.20;;;;;;10438202;28;20214;-76
2021/08/21 08:55:26;;;;;;;6.30;5.80;;;24.50;42.20;;;;;;10438841;28;20233;-76
2021/08/21 09:00:29;;;;;;;6.07;5.50;;;24.70;41.70;;;;;;10439045;28;20229;-76
2021/08/21 09:05:40;;;;;;;6.07;5.60;;;25.10;41.00;;;;;;10436008;28;20709;-74
2021/08/21 09:10:45;;;;;;;6.30;5.80;;;25.40;40.90;;;;;;10439476;28;20626;-74
2021/08/21 09:15:50;;;;;;;6.40;5.90;;;25.70;40.10;;;;;;10437252;28;20225;-73
2021/08/21 09:20:57;;;;;;;6.30;5.53;;;26.00;40.00;;;;;;10439905;28;20767;-74
2021/08/21 09:26:10;;;;;;;6.47;5.83;;;26.20;39.40;;;;;;10439513;28;20229;-74
2021/08/21 09:31:15;;;;;;;5.53;5.13;;;26.50;38.90;;;;;;10439113;28;20229;-74
2021/08/21 09:36:28;;;;;;;4.60;4.23;;;26.70;38.70;;;;;;10439237;28;20229;-74
2021/08/21 09:41:52;;;;;;;5.23;4.83;;;27.00;37.40;;;;;;10439946;28;20229;-74
2021/08/21 09:47:18;;;;;;;5.13;4.73;;;27.20;36.80;;;;;;10438482;28;20225;-76
2021/08/21 09:52:21;;;;;;;5.00;4.60;;;27.40;36.60;;;;;;10438326;28;20233;-74
2021/08/21 09:57:26;;;;;;;4.57;4.27;;;27.50;36.00;;;;;;10438326;28;20225;-74
2021/08/21 10:02:31;;;;;;;4.83;4.40;;;27.60;35.60;;;;;;10440138;28;20229;-74
2021/08/21 10:07:37;;;;;;;4.77;4.37;;;27.80;35.50;;;;;;10436736;28;20232;-74
2021/08/21 10:12:44;;;;;;;5.07;4.57;;;27.90;35.50;;;;;;10438205;28;20736;-74
2021/08/21 10:17:48;;;;;;;4.43;4.07;;;28.00;34.40;;;;;;10441688;28;20234;-74
2021/08/21 10:22:52;;;;;;;4.63;4.23;;;28.10;34.80;;;;;;10447977;28;20255;-74
2021/08/21 10:28:01;;;;;;;4.60;4.20;;;28.30;34.30;;;;;;10445346;28;20240;-74
2021/08/21 10:33:05;;;;;;;4.40;4.00;;;28.30;32.60;;;;;;10444903;28;20221;-74
2021/08/21 10:38:39;;;;;;;4.33;4.03;;;28.40;33.10;;;;;;10446636;28;20724;-74
2021/08/21 10:43:45;;;;;;;4.10;3.80;;;28.50;33.20;;;;;;10443642;28;20244;-74
2021/08/21 10:48:55;;;;;;;4.20;3.90;;;28.60;32.20;;;;;;10446937;28;20221;-74
2021/08/21 10:53:58;;;;;;;4.07;3.77;;;28.70;31.20;;;;;;10446001;28;20213;-74
2021/08/21 10:59:03;;;;;;;4.13;3.80;;;28.80;32.70;;;;;;10443711;28;20233;-74
2021/08/21 11:04:06;;;;;;;3.50;3.30;;;28.90;30.80;;;;;;10443182;28;20221;-74
2021/08/21 11:09:24;;;;;;;3.50;3.20;;;29.00;31.60;;;;;;10445994;28;20232;-74
2021/08/21 11:14:39;;;;;;;3.50;3.30;;;29.10;31.00;;;;;;10444215;28;20229;-74
2021/08/21 11:19:46;;;;;;;3.73;3.50;;;29.20;29.60;;;;;;10445627;28;20282;-74
2021/08/21 11:24:59;;;;;;;3.60;3.30;;;29.30;29.50;;;;;;10444760;28;20274;-74
2021/08/21 11:30:24;;;;;;;3.57;3.27;;;29.40;29.30;;;;;;10441218;28;20228;-74
2021/08/21 11:35:29;;;;;;;3.27;3.07;;;29.40;29.70;;;;;;10443311;28;20269;-74
2021/08/21 11:40:36;;;;;;;3.70;3.50;;;29.40;29.20;;;;;;10444763;28;20232;-74
2021/08/21 11:45:42;;;;;;;3.30;3.10;;;29.50;29.00;;;;;;10443291;28;20225;-74
2021/08/21 11:50:46;;;;;;;3.30;3.10;;;29.50;28.80;;;;;;10440639;28;20228;-74
2021/08/21 11:55:53;;;;;;;3.93;3.63;;;29.50;29.20;;;;;;10444325;28;20596;-74
2021/08/21 12:01:03;;;;;;;3.77;3.43;;;29.70;28.60;;;;;;10443667;28;20342;-74
2021/08/21 12:06:07;;;;;;;3.60;3.30;;;29.70;28.50;;;;;;10441501;28;20308;-74
2021/08/21 12:11:10;;;;;;;3.50;3.30;;;29.90;28.90;;;;;;10440214;28;20233;-74
2021/08/21 12:16:16;;;;;;;3.53;3.33;;;29.90;28.70;;;;;;10441976;28;20237;-74
2021/08/21 12:21:22;;;;;;;3.50;3.20;;;29.90;27.70;;;;;;10442931;28;20237;-74
2021/08/21 12:26:32;;;;;;;4.80;3.30;;;30.00;27.80;;;;;;10441887;28;20231;-74
2021/08/21 12:31:37;;;;;;;3.20;3.00;;;30.00;27.40;;;;;;10439601;28;20776;-74
2021/08/21 12:36:42;;;;;;;3.83;3.50;;;30.00;27.80;;;;;;10440586;28;20225;-74
2021/08/21 12:41:50;;;;;;;3.70;3.40;;;30.00;27.80;;;;;;10439332;28;20240;-74
2021/08/21 12:46:57;;;;;;;3.80;3.50;;;30.00;26.60;;;;;;10441509;28;20240;-74
2021/08/21 12:52:03;;;;;;;3.60;3.40;;;30.00;27.10;;;;;;10439010;28;20721;-74
2021/08/21 12:57:08;;;;;;;4.17;3.60;;;30.00;27.10;;;;;;10440366;28;20225;-74
2021/08/21 13:02:14;;;;;;;3.73;3.53;;;30.00;27.30;;;;;;10441907;28;20233;-74
2021/08/21 13:07:18;;;;;;;3.63;3.33;;;30.00;26.60;;;;;;10439340;28;20323;-74
2021/08/21 13:12:21;;;;;;;4.67;3.20;;;30.00;27.70;;;;;;10440607;28;20236;-74
2021/08/21 13:17:26;;;;;;;3.63;3.43;;;30.00;27.70;;;;;;10440172;28;20229;-74
2021/08/21 13:22:30;;;;;;;3.70;3.40;;;30.10;26.70;;;;;;10441264;28;20229;-74
2021/08/21 13:27:34;;;;;;;5.43;3.27;;;30.10;27.30;;;;;;10440809;28;20228;-74
2021/08/21 13:32:39;;;;;;;3.70;3.40;;;30.10;27.00;;;;;;10439123;28;20612;-74
2021/08/21 13:37:42;;;;;;;3.97;3.63;;;30.20;26.60;;;;;;10440651;28;20225;-74
2021/08/21 13:42:45;;;;;;;3.70;3.40;;;30.20;27.00;;;;;;10438654;28;20232;-74
2021/08/21 13:47:49;;;;;;;4.33;3.60;;;30.20;26.70;;;;;;10436815;28;20224;-74
2021/08/21 13:52:53;;;;;;;3.80;3.50;;;30.20;26.20;;;;;;10439149;28;21016;-74
2021/08/21 13:57:56;;;;;;;3.87;3.57;;;30.20;26.80;;;;;;10440427;28;20220;-74
2021/08/21 14:03:01;;;;;;;3.53;3.33;;;30.20;26.40;;;;;;10438888;28;20224;-75
2021/08/21 14:08:06;;;;;;;4.10;3.80;;;30.20;25.70;;;;;;10438799;28;20269;-74
2021/08/21 14:13:09;;;;;;;3.97;3.67;;;30.20;25.60;;;;;;10439421;28;20390;-74
2021/08/21 14:18:14;;;;;;;3.90;3.60;;;30.30;25.80;;;;;;10439629;28;20577;-75
2021/08/21 14:23:17;;;;;;;4.03;3.73;;;30.30;25.50;;;;;;10438548;28;20240;-74
2021/08/21 14:28:20;;;;;;;3.80;3.50;;;30.40;25.60;;;;;;10437367;28;20236;-74
2021/08/21 14:33:25;;;;;;;4.30;3.60;;;30.50;25.70;;;;;;10437707;28;20232;-75
2021/08/21 14:38:28;;;;;;;4.00;3.80;;;30.50;24.90;;;;;;10438737;28;20232;-74
2021/08/21 14:43:31;;;;;;;4.10;3.70;;;30.50;25.10;;;;;;10437634;28;20717;-74
2021/08/21 14:48:36;;;;;;;4.03;3.73;;;30.50;24.90;;;;;;10436348;28;20833;-74
2021/08/21 14:53:39;;;;;;;3.80;3.50;;;30.50;25.00;;;;;;10438725;28;20236;-74
2021/08/21 14:58:42;;;;;;;4.13;3.73;;;30.60;25.20;;;;;;10438573;28;20239;-73
2021/08/21 15:03:48;;;;;;;3.73;3.53;;;30.60;24.90;;;;;;10440553;28;20225;-74
2021/08/21 15:08:51;;;;;;;4.10;3.70;;;30.50;24.50;;;;;;10444719;28;20229;-74
2021/08/21 15:13:55;;;;;;;4.20;3.90;;;30.50;25.10;;;;;;10444959;28;20258;-75
2021/08/21 15:19:00;;;;;;;4.30;3.90;;;30.60;24.90;;;;;;10445422;28;20228;-74
2021/08/21 15:24:03;;;;;;;4.10;3.77;;;30.60;24.10;;;;;;10443559;28;20231;-74
2021/08/21 15:29:07;;;;;;;4.37;4.07;;;30.60;24.90;;;;;;10445928;28;20239;-74
2021/08/21 15:34:12;;;;;;;4.17;3.87;;;30.60;24.30;;;;;;10443790;28;20237;-75
2021/08/21 15:39:16;;;;;;;4.10;3.70;;;30.60;24.10;;;;;;10445109;28;20228;-74
2021/08/21 15:44:19;;;;;;;4.50;4.10;;;30.70;24.40;;;;;;10443281;28;20787;-74
2021/08/21 15:49:24;;;;;;;4.23;3.93;;;30.60;24.30;;;;;;10445027;28;20320;-74
2021/08/21 15:54:27;;;;;;;4.13;3.83;;;30.60;24.10;;;;;;10441717;28;20252;-74
2021/08/21 15:59:31;;;;;;;4.50;3.70;;;30.60;24.10;;;;;;10443673;28;20236;-75
2021/08/21 16:04:36;;;;;;;4.37;4.07;;;30.60;24.30;;;;;;10438711;28;20709;-75
2021/08/21 16:09:39;;;;;;;4.33;3.90;;;30.50;24.20;;;;;;10443750;28;20237;-74
2021/08/21 16:14:42;;;;;;;4.00;3.70;;;30.50;24.30;;;;;;10442157;28;20224;-74
2021/08/21 16:19:47;;;;;;;4.43;3.87;;;30.50;24.70;;;;;;10443798;28;20243;-74
2021/08/21 16:24:50;;;;;;;3.80;3.50;;;30.50;24.10;;;;;;10442062;28;20233;-74
2021/08/21 16:29:55;;;;;;;4.13;3.83;;;30.60;24.50;;;;;;10440549;28;20603;-74
2021/08/21 16:34:59;;;;;;;4.00;3.67;;;30.60;24.50;;;;;;10438179;28;20233;-74
2021/08/21 16:40:03;;;;;;;3.70;3.50;;;30.70;24.50;;;;;;10440988;28;20715;-75
2021/08/21 16:45:07;;;;;;;4.30;4.00;;;30.70;24.60;;;;;;10442629;28;20229;-74
2021/08/21 16:50:12;;;;;;;4.40;4.10;;;30.70;25.60;;;;;;10440928;28;20609;-75
2021/08/21 16:55:15;;;;;;;4.37;3.97;;;30.70;25.90;;;;;;10439842;28;20653;-74
2021/08/21 17:00:18;;;;;;;4.43;4.03;;;30.70;25.90;;;;;;10439877;28;20720;-74
2021/08/21 17:05:23;;;;;;;4.47;4.07;;;30.70;26.00;;;;;;10439515;28;20266;-75
2021/08/21 17:10:27;;;;;;;6.90;4.20;;;30.60;26.20;;;;;;10441497;28;20227;-74
2021/08/21 17:15:30;;;;;;;4.27;3.90;;;30.50;26.00;;;;;;10440692;28;20279;-74
2021/08/21 17:20:35;;;;;;;4.07;3.77;;;30.40;26.10;;;;;;10441641;28;20275;-74
2021/08/21 17:25:40;;;;;;;4.60;4.20;;;30.30;26.60;;;;;;10436825;28;20999;-74
2021/08/21 17:30:44;;;;;;;4.57;4.17;;;30.20;26.60;;;;;;10441337;28;20217;-74
2021/08/21 17:35:49;;;;;;;4.60;3.97;;;30.20;26.80;;;;;;10437508;28;20274;-75
2021/08/21 17:40:52;;;;;;;4.60;4.20;;;30.00;27.20;;;;;;10439245;28;20229;-74
2021/08/21 17:45:55;;;;;;;4.60;4.20;;;29.90;27.10;;;;;;10440285;28;20221;-74
2021/08/21 17:51:00;;;;;;;4.80;4.20;;;29.80;27.20;;;;;;10438231;28;20213;-74
2021/08/21 17:56:03;;;;;;;4.60;4.20;;;29.60;27.40;;;;;;10440085;28;20229;-74
2021/08/21 18:01:06;;;;;;;4.80;4.40;;;29.50;27.50;;;;;;10439530;28;20718;-74
2021/08/21 18:06:11;;;;;;;4.80;4.40;;;29.40;27.60;;;;;;10435956;28;20229;-74
2021/08/21 18:11:14;;;;;;;4.30;4.00;;;29.20;28.10;;;;;;10440084;28;20232;-74
2021/08/21 18:16:18;;;;;;;4.07;3.77;;;29.10;28.20;;;;;;10438145;28;20228;-74
2021/08/21 18:21:22;;;;;;;4.53;4.20;;;29.00;28.30;;;;;;10438288;28;20236;-74
2021/08/21 18:26:25;;;;;;;4.73;4.20;;;28.80;28.70;;;;;;10439299;28;20271;-74
2021/08/21 18:31:29;;;;;;;4.40;4.00;;;28.70;28.60;;;;;;10437178;28;20228;-74
2021/08/21 18:36:33;;;;;;;4.87;4.47;;;28.60;28.70;;;;;;10440173;28;20235;-74
2021/08/21 18:41:36;;;;;;;4.40;4.00;;;28.50;29.20;;;;;;10446266;28;20228;-74
2021/08/21 18:46:40;;;;;;;4.67;4.27;;;28.40;29.00;;;;;;10447409;28;20232;-74
2021/08/21 18:51:44;;;;;;;4.07;3.77;;;28.20;29.10;;;;;;10445990;28;20235;-74
2021/08/21 18:56:47;;;;;;;4.40;4.10;;;28.10;29.50;;;;;;10443979;28;20225;-74
2021/08/21 19:01:51;;;;;;;5.23;4.83;;;28.00;29.40;;;;;;10447149;28;20264;-74
2021/08/21 19:06:55;;;;;;;4.80;4.40;;;27.80;29.30;;;;;;10441136;28;21177;-76
2021/08/21 19:11:58;;;;;;;4.63;4.23;;;27.60;30.00;;;;;;10446462;28;20231;-74
2021/08/21 19:17:02;;;;;;;4.90;4.50;;;27.50;30.00;;;;;;10444579;28;20229;-74
2021/08/21 19:22:06;;;;;;;5.30;4.80;;;27.40;29.90;;;;;;10446097;28;20236;-74
2021/08/21 19:27:09;;;;;;;5.93;5.47;;;27.20;29.80;;;;;;10440940;28;20236;-74
2021/08/21 19:32:13;;;;;;;6.93;5.20;;;27.20;29.80;;;;;;10443814;28;20229;-74
2021/08/21 19:37:17;;;;;;;5.20;4.77;;;27.00;30.00;;;;;;10445111;28;20221;-74
2021/08/21 19:42:20;;;;;;;4.83;4.43;;;26.90;30.50;;;;;;10444236;28;20252;-74
2021/08/21 19:47:23;;;;;;;4.90;4.50;;;26.80;30.50;;;;;;10444672;28;20239;-74
2021/08/21 19:52:28;;;;;;;5.73;4.73;;;26.70;30.70;;;;;;10441212;28;20328;-74
2021/08/21 19:57:31;;;;;;;4.70;4.30;;;26.70;31.10;;;;;;10444209;28;20225;-74
2021/08/21 20:02:34;;;;;;;4.60;4.30;;;26.60;30.90;;;;;;10443763;28;20239;-74
2021/08/21 20:07:39;;;;;;;5.17;4.77;;;26.50;30.90;;;;;;10440387;28;20720;-74
2021/08/21 20:12:42;;;;;;;4.80;4.40;;;26.40;31.50;;;;;;10442399;28;20255;-74
2021/08/21 20:17:47;;;;;;;4.93;4.53;;;26.30;31.10;;;;;;10443644;28;20213;-74
2021/08/21 20:22:53;;;;;;;5.70;5.20;;;26.20;31.30;;;;;;10441211;28;20233;-74
2021/08/21 20:27:58;;;;;;;4.87;4.50;;;26.10;32.00;;;;;;10440539;28;20227;-74
2021/08/21 20:33:01;;;;;;;5.03;4.63;;;26.00;31.40;;;;;;10440375;28;20239;-74
2021/08/21 20:38:06;;;;;;;5.30;4.90;;;25.90;31.70;;;;;;10441169;28;20257;-74
2021/08/21 20:43:09;;;;;;;5.93;5.33;;;25.90;32.20;;;;;;10441680;28;20220;-74
2021/08/21 20:48:13;;;;;;;5.40;5.00;;;25.70;31.80;;;;;;10441034;28;20727;-74
2021/08/21 20:53:17;;;;;;;5.47;5.07;;;25.60;32.20;;;;;;10441872;28;20705;-74
2021/08/21 20:58:20;;;;;;;5.57;5.07;;;25.40;32.80;;;;;;10438853;28;20217;-74
2021/08/21 21:03:24;;;;;;;5.37;4.97;;;25.40;32.60;;;;;;10439440;28;21028;-74
2021/08/21 21:08:29;;;;;;;5.83;4.67;;;25.30;32.70;;;;;;10441552;28;20228;-74
2021/08/21 21:13:33;;;;;;;5.40;5.00;;;25.20;33.10;;;;;;10439851;28;20233;-74
2021/08/21 21:18:38;;;;;;;5.63;4.63;;;25.20;32.70;;;;;;10439270;28;20229;-76
2021/08/21 21:23:43;;;;;;;5.57;5.07;;;25.10;32.80;;;;;;10437718;28;20229;-76
2021/08/21 21:28:46;;;;;;;5.53;5.00;;;25.10;33.50;;;;;;10440768;28;20759;-76
2021/08/21 21:33:51;;;;;;;5.10;4.70;;;25.00;33.10;;;;;;10439009;28;20217;-76
2021/08/21 21:38:57;;;;;;;5.77;5.27;;;25.00;33.30;;;;;;10437063;28;20701;-74
2021/08/21 21:44:01;;;;;;;5.40;4.97;;;24.90;33.70;;;;;;10438908;28;20226;-74
2021/08/21 21:49:04;;;;;;;5.03;4.63;;;24.90;33.50;;;;;;10438348;28;20229;-74
2021/08/21 21:54:09;;;;;;;5.23;4.73;;;24.80;33.30;;;;;;10439314;28;20233;-74
2021/08/21 21:59:12;;;;;;;5.60;5.10;;;24.70;33.80;;;;;;10440483;28;20229;-76
2021/08/21 22:04:15;;;;;;;5.27;4.77;;;24.70;33.70;;;;;;10436191;28;20237;-77
2021/08/21 22:09:20;;;;;;;6.03;5.53;;;24.60;33.60;;;;;;10439964;28;20228;-76
2021/08/21 22:14:23;;;;;;;5.30;4.90;;;24.50;34.10;;;;;;10445354;28;20316;-76
2021/08/21 22:19:26;;;;;;;5.63;5.23;;;24.50;33.80;;;;;;10448450;28;20234;-76
2021/08/21 22:24:31;;;;;;;4.63;4.33;;;24.50;34.00;;;;;;10445802;28;20236;-76
2021/08/21 22:29:34;;;;;;;5.97;5.33;;;24.40;34.10;;;;;;10446476;28;21031;-76
2021/08/21 22:34:37;;;;;;;5.80;5.30;;;24.30;33.80;;;;;;10445359;28;20225;-76
2021/08/21 22:39:41;;;;;;;6.40;5.80;;;24.20;33.90;;;;;;10447555;28;20734;-76
2021/08/21 22:44:44;;;;;;;5.83;5.33;;;24.10;34.30;;;;;;10443811;28;20224;-77
2021/08/21 22:49:48;;;;;;;5.90;5.40;;;24.00;34.00;;;;;;10446507;28;20233;-76
2021/08/21 22:54:52;;;;;;;6.73;6.17;;;24.00;34.30;;;;;;10445983;28;20351;-76
2021/08/21 22:59:55;;;;;;;6.10;5.40;;;24.00;34.70;;;;;;10445292;28;20231;-76
2021/08/21 23:04:58;;;;;;;6.00;5.40;;;23.80;34.20;;;;;;10445264;28;20232;-76
2021/08/21 23:10:03;;;;;;;5.57;5.07;;;23.70;34.30;;;;;;10445230;28;20225;-76
2021/08/21 23:15:07;;;;;;;5.20;4.80;;;23.60;34.80;;;;;;10443980;28;20232;-76
2021/08/21 23:20:11;;;;;;;5.20;4.80;;;23.50;34.80;;;;;;10443765;28;20225;-76
2021/08/21 23:25:16;;;;;;;5.33;4.70;;;23.40;34.80;;;;;;10444398;28;20233;-76
2021/08/21 23:30:19;;;;;;;5.77;5.27;;;23.40;35.10;;;;;;10445114;28;20237;-76
2021/08/21 23:35:24;;;;;;;5.93;5.37;;;23.40;34.90;;;;;;10444144;28;20736;-77
2021/08/21 23:40:29;;;;;;;6.13;5.10;;;23.30;35.10;;;;;;10445132;28;21063;-76
2021/08/21 23:45:32;;;;;;;5.40;4.90;;;23.30;35.10;;;;;;10442885;28;20233;-76
2021/08/21 23:50:37;;;;;;;5.23;4.73;;;23.20;35.10;;;;;;10443866;28;20228;-76
2021/08/21 23:55:42;;;;;;;5.60;5.00;;;23.10;35.50;;;;;;10444108;28;20229;-76
